Time;durP1;ratioP1;P1;durP2;ratioP2;P2;SDS_P1;SDS_P2;PMS_P1;PMS_P2;Temp;Humidity;BMP_temperature;BMP_pressure;BME280_temperature;BME280_humidity;BME280_pressure;Samples;Min_cycle;Max_cycle;Signal;HPM_P1;HPM_P2
2023/08/05 00:00:22;;;;;;;14.70;14.20;;;16.20;99.90;;;;;;5086449;28;20199;-68
2023/08/05 00:02:49;;;;;;;14.13;13.63;;;16.10;99.90;;;;;;5088373;28;20205;-66
2023/08/05 00:05:16;;;;;;;14.30;13.70;;;16.10;99.90;;;;;;5088650;28;20202;-65
2023/08/05 00:07:44;;;;;;;13.83;13.33;;;16.10;99.90;;;;;;5088411;28;20230;-65
2023/08/05 00:10:11;;;;;;;13.63;13.13;;;16.10;99.90;;;;;;5086360;28;20378;-64
2023/08/05 00:12:38;;;;;;;13.73;13.23;;;16.20;99.90;;;;;;5086551;28;20202;-65
2023/08/05 00:15:08;;;;;;;13.90;13.40;;;16.20;99.90;;;;;;5087649;28;20280;-66
2023/08/05 00:17:35;;;;;;;14.02;13.52;;;16.20;99.90;;;;;;5088335;28;20944;-66
2023/08/05 00:20:02;;;;;;;14.60;14.10;;;16.20;99.90;;;;;;5086888;28;20210;-64
2023/08/05 00:22:29;;;;;;;14.00;13.50;;;16.20;99.90;;;;;;5086645;28;20233;-65
2023/08/05 00:24:57;;;;;;;13.03;12.60;;;16.30;99.90;;;;;;5087871;28;20202;-65
2023/08/05 00:27:24;;;;;;;14.97;14.47;;;16.30;99.90;;;;;;5087428;28;20248;-64
2023/08/05 00:29:51;;;;;;;14.77;14.27;;;16.30;99.90;;;;;;5087387;28;20877;-66
2023/08/05 00:32:18;;;;;;;15.23;14.70;;;16.30;99.90;;;;;;5085221;28;20202;-67
2023/08/05 00:34:45;;;;;;;14.48;13.98;;;16.30;99.90;;;;;;5089370;28;20225;-64
2023/08/05 00:37:12;;;;;;;14.67;14.17;;;16.30;99.90;;;;;;5090826;28;20221;-65
2023/08/05 00:39:39;;;;;;;15.53;15.03;;;16.30;99.90;;;;;;5087048;28;20205;-66
2023/08/05 00:42:07;;;;;;;14.97;14.47;;;16.30;99.90;;;;;;5088025;28;20224;-66
2023/08/05 00:44:34;;;;;;;13.77;13.27;;;16.30;99.90;;;;;;5086591;28;20786;-65
2023/08/05 00:47:01;;;;;;;14.17;13.67;;;16.30;99.90;;;;;;5088987;28;20260;-65
2023/08/05 00:49:29;;;;;;;13.83;13.33;;;16.20;99.90;;;;;;5089888;28;20213;-65
2023/08/05 00:51:57;;;;;;;14.80;14.30;;;16.30;99.90;;;;;;5089371;28;20233;-65
2023/08/05 00:54:24;;;;;;;13.90;13.40;;;16.20;99.90;;;;;;5087485;28;20793;-64
2023/08/05 00:56:51;;;;;;;13.77;13.27;;;16.20;99.90;;;;;;5086306;28;20218;-65
2023/08/05 00:59:20;;;;;;;14.30;13.80;;;16.20;99.90;;;;;;5088501;28;20226;-66
2023/08/05 01:01:47;;;;;;;14.13;13.63;;;16.20;99.90;;;;;;5085614;28;20199;-64
2023/08/05 01:04:14;;;;;;;13.82;13.32;;;16.10;99.90;;;;;;5088084;28;20248;-65
2023/08/05 01:06:42;;;;;;;13.20;12.73;;;16.10;99.90;;;;;;5087924;28;20294;-66
2023/08/05 01:09:09;;;;;;;13.47;12.97;;;16.10;99.90;;;;;;5086902;28;20233;-65
2023/08/05 01:11:37;;;;;;;12.90;12.50;;;16.10;99.90;;;;;;5088005;28;20197;-65
2023/08/05 01:14:04;;;;;;;14.07;13.57;;;16.10;99.90;;;;;;5088035;28;20704;-66
2023/08/05 01:16:32;;;;;;;12.97;12.57;;;16.10;99.90;;;;;;5087618;28;20230;-65
2023/08/05 01:19:01;;;;;;;13.80;13.30;;;16.00;99.90;;;;;;5084955;28;20574;-66
2023/08/05 01:21:36;;;;;;;13.83;13.33;;;16.00;99.90;;;;;;5086714;28;20525;-65
2023/08/05 01:24:14;;;;;;;13.53;13.03;;;16.10;99.90;;;;;;5090399;28;20234;-66
2023/08/05 01:26:43;;;;;;;14.38;13.88;;;16.10;99.90;;;;;;5086017;28;20218;-65
2023/08/05 01:29:10;;;;;;;15.27;14.77;;;16.10;99.90;;;;;;5086652;28;20309;-66
2023/08/05 01:31:37;;;;;;;13.50;13.00;;;16.10;99.90;;;;;;5088878;28;20199;-66
2023/08/05 01:34:05;;;;;;;14.13;13.63;;;16.10;99.90;;;;;;5086526;28;20218;-66
2023/08/05 01:36:32;;;;;;;13.20;12.80;;;16.10;99.90;;;;;;5085822;28;20804;-66
2023/08/05 01:38:59;;;;;;;13.87;13.37;;;16.10;99.90;;;;;;5084494;28;20643;-64
2023/08/05 01:41:26;;;;;;;13.97;13.47;;;16.20;99.90;;;;;;5089566;28;20573;-66
2023/08/05 01:43:55;;;;;;;12.67;12.27;;;16.10;99.90;;;;;;5090399;28;20248;-66
2023/08/05 01:46:21;;;;;;;14.60;14.10;;;16.10;99.90;;;;;;5084922;28;20225;-65
2023/08/05 01:48:48;;;;;;;13.70;13.20;;;16.10;99.90;;;;;;5089256;28;20224;-66
2023/08/05 01:51:15;;;;;;;13.60;13.10;;;16.10;99.90;;;;;;5089341;28;20227;-66
2023/08/05 01:53:43;;;;;;;14.47;13.97;;;16.10;99.90;;;;;;5090160;28;20195;-67
2023/08/05 01:56:10;;;;;;;13.43;12.93;;;16.10;99.90;;;;;;5093360;28;20305;-65
2023/08/05 01:58:37;;;;;;;14.60;14.00;;;16.00;99.90;;;;;;5093455;28;20231;-66
2023/08/05 02:01:05;;;;;;;13.77;13.27;;;16.00;99.90;;;;;;5091204;28;20205;-65
2023/08/05 02:03:31;;;;;;;14.73;14.23;;;15.90;99.90;;;;;;5094390;28;20195;-65
2023/08/05 02:05:58;;;;;;;14.17;13.67;;;15.90;99.90;;;;;;5093304;28;20302;-65
2023/08/05 02:08:25;;;;;;;15.57;15.07;;;15.90;99.90;;;;;;5108821;22;20238;-67
2023/08/05 02:10:52;;;;;;;14.50;14.00;;;15.90;99.90;;;;;;5079973;28;20318;-63
2023/08/05 02:13:19;;;;;;;12.73;12.23;;;15.90;99.90;;;;;;5090335;28;20205;-63
2023/08/05 02:15:46;;;;;;;14.07;13.57;;;15.80;99.90;;;;;;5074052;28;20252;-66
2023/08/05 02:18:14;;;;;;;15.97;15.47;;;15.80;99.90;;;;;;5071413;28;20227;-66
2023/08/05 02:20:40;;;;;;;13.87;13.37;;;15.80;99.90;;;;;;5070045;28;20203;-66
2023/08/05 02:23:08;;;;;;;15.07;14.57;;;15.80;99.90;;;;;;5071448;28;20214;-65
2023/08/05 02:25:35;;;;;;;14.50;14.00;;;15.80;99.90;;;;;;5071871;28;20576;-66
2023/08/05 02:28:02;;;;;;;14.80;14.30;;;15.80;99.90;;;;;;5071751;28;20231;-66
2023/08/05 02:30:28;;;;;;;14.20;13.60;;;15.90;99.90;;;;;;5085632;28;20206;-65
2023/08/05 02:32:55;;;;;;;14.63;14.13;;;15.80;99.90;;;;;;5091689;28;20214;-65
2023/08/05 02:35:23;;;;;;;14.70;14.20;;;15.80;99.90;;;;;;5091397;28;20321;-65
2023/08/05 02:37:50;;;;;;;14.43;13.93;;;15.80;99.90;;;;;;5091518;28;20222;-65
2023/08/05 02:40:17;;;;;;;14.70;14.20;;;15.80;99.90;;;;;;5090973;28;20237;-65
2023/08/05 02:42:45;;;;;;;15.77;15.17;;;15.90;99.90;;;;;;5091387;28;20206;-66
2023/08/05 02:45:12;;;;;;;14.90;14.30;;;15.80;99.90;;;;;;5090310;28;20202;-66
2023/08/05 02:47:39;;;;;;;13.90;13.40;;;15.90;99.90;;;;;;5093282;28;20226;-66
2023/08/05 02:50:09;;;;;;;14.97;14.47;;;15.80;99.90;;;;;;5092524;28;20229;-66
2023/08/05 02:52:37;;;;;;;14.65;14.15;;;15.90;99.90;;;;;;5093213;28;20210;-66
2023/08/05 02:55:06;;;;;;;13.87;13.27;;;15.90;99.90;;;;;;5109591;28;20227;-65
2023/08/05 02:57:33;;;;;;;14.90;14.40;;;15.90;99.90;;;;;;5098833;28;20313;-65
2023/08/05 03:00:00;;;;;;;14.87;14.37;;;15.90;99.90;;;;;;5090100;28;20207;-65
2023/08/05 03:02:28;;;;;;;15.40;14.87;;;15.80;99.90;;;;;;5091659;28;20297;-66
2023/08/05 03:04:54;;;;;;;15.43;14.93;;;15.90;99.90;;;;;;5092242;28;20286;-64
2023/08/05 03:07:21;;;;;;;14.03;13.53;;;15.90;99.90;;;;;;5091173;28;20322;-66
2023/08/05 03:09:50;;;;;;;14.83;14.33;;;15.90;99.90;;;;;;5090441;28;20210;-65
2023/08/05 03:12:16;;;;;;;14.87;14.37;;;15.90;99.90;;;;;;5091290;28;20202;-66
2023/08/05 03:14:43;;;;;;;14.33;13.83;;;15.90;99.90;;;;;;5091065;28;20226;-67
2023/08/05 03:17:10;;;;;;;14.23;13.73;;;16.00;99.90;;;;;;5090568;28;20301;-66
2023/08/05 03:19:37;;;;;;;14.47;13.97;;;15.90;99.90;;;;;;5090132;28;20206;-66
2023/08/05 03:22:04;;;;;;;15.13;14.63;;;15.90;99.90;;;;;;5088849;28;20210;-66
2023/08/05 03:24:31;;;;;;;13.63;13.13;;;16.00;99.90;;;;;;5096506;28;20571;-65
2023/08/05 03:26:59;;;;;;;14.67;14.17;;;15.90;99.90;;;;;;5091114;28;20321;-66
2023/08/05 03:29:26;;;;;;;14.27;13.77;;;16.10;99.90;;;;;;5089275;28;20319;-63
2023/08/05 03:31:53;;;;;;;13.70;13.20;;;15.90;99.90;;;;;;5090704;28;20217;-66
2023/08/05 03:34:19;;;;;;;14.13;13.63;;;16.00;99.90;;;;;;5090255;28;20250;-66
2023/08/05 03:36:46;;;;;;;13.93;13.43;;;16.00;99.90;;;;;;5090122;28;20687;-66
2023/08/05 03:39:13;;;;;;;15.27;14.70;;;16.00;99.90;;;;;;5089656;28;20573;-67
2023/08/05 03:41:40;;;;;;;15.27;14.77;;;16.00;99.90;;;;;;5090034;28;20211;-67
2023/08/05 03:44:08;;;;;;;14.67;14.17;;;16.00;99.90;;;;;;5090058;28;20297;-64
2023/08/05 03:46:35;;;;;;;14.80;14.30;;;16.00;99.90;;;;;;5090483;28;20207;-65
2023/08/05 03:49:02;;;;;;;13.27;12.77;;;15.90;99.90;;;;;;5089661;28;20314;-67
2023/08/05 03:51:29;;;;;;;13.77;13.27;;;15.90;99.90;;;;;;5090349;28;20256;-64
2023/08/05 03:53:56;;;;;;;14.43;13.83;;;15.90;99.90;;;;;;5092069;28;20286;-65
2023/08/05 03:56:26;;;;;;;13.10;12.60;;;15.90;99.90;;;;;;5090564;28;20246;-66
2023/08/05 03:58:54;;;;;;;13.93;13.43;;;15.90;99.90;;;;;;5089823;28;20229;-64
2023/08/05 04:01:22;;;;;;;13.90;13.40;;;15.80;99.90;;;;;;5089052;28;20199;-64
2023/08/05 04:03:49;;;;;;;14.27;13.77;;;15.70;99.90;;;;;;5089452;28;20205;-65
2023/08/05 04:06:16;;;;;;;14.27;13.77;;;15.70;99.90;;;;;;5089999;28;20210;-65
2023/08/05 04:08:44;;;;;;;14.75;14.25;;;15.80;99.90;;;;;;5089619;28;20234;-67
2023/08/05 04:11:11;;;;;;;13.97;13.47;;;15.80;99.90;;;;;;5089075;28;20533;-65
2023/08/05 04:13:39;;;;;;;14.53;14.00;;;15.80;99.90;;;;;;5088927;28;20210;-65
2023/08/05 04:16:08;;;;;;;14.63;14.13;;;15.90;99.90;;;;;;5089562;28;20969;-65
2023/08/05 04:18:38;;;;;;;14.30;13.80;;;15.90;99.90;;;;;;5089328;28;20234;-65
2023/08/05 04:21:05;;;;;;;14.43;13.93;;;15.90;99.90;;;;;;5088732;28;20207;-66
2023/08/05 04:23:34;;;;;;;14.03;13.53;;;15.90;99.90;;;;;;5089411;28;20207;-64
2023/08/05 04:26:03;;;;;;;14.00;13.50;;;16.00;99.90;;;;;;5087796;28;20206;-66
2023/08/05 04:28:30;;;;;;;13.50;13.00;;;15.90;99.90;;;;;;5090118;28;20227;-65
2023/08/05 04:30:57;;;;;;;13.67;13.20;;;15.80;99.90;;;;;;5089491;28;20295;-65
2023/08/05 04:33:25;;;;;;;12.00;11.60;;;15.80;99.90;;;;;;5088817;28;20199;-65
2023/08/05 04:35:53;;;;;;;13.47;12.97;;;15.80;99.90;;;;;;5088998;28;20305;-64
2023/08/05 04:38:21;;;;;;;14.65;14.15;;;15.80;99.90;;;;;;5087995;28;20218;-64
2023/08/05 04:40:48;;;;;;;14.10;13.60;;;15.80;99.90;;;;;;5087168;28;20206;-65
2023/08/05 04:43:16;;;;;;;14.13;13.63;;;15.90;99.90;;;;;;5089123;28;20206;-65
2023/08/05 04:45:43;;;;;;;13.77;13.27;;;16.00;99.90;;;;;;5089167;28;20293;-65
2023/08/05 04:48:10;;;;;;;15.00;14.40;;;16.00;99.90;;;;;;5088269;28;20230;-65
2023/08/05 04:50:38;;;;;;;15.13;14.63;;;16.00;99.90;;;;;;5087231;28;20198;-67
2023/08/05 04:53:06;;;;;;;15.20;14.70;;;16.10;99.90;;;;;;5094754;28;20213;-65
2023/08/05 04:55:33;;;;;;;14.50;14.00;;;16.10;99.90;;;;;;5093253;28;20309;-63
2023/08/05 04:58:00;;;;;;;14.47;13.97;;;16.20;99.90;;;;;;5087411;28;20228;-66
2023/08/05 05:00:27;;;;;;;15.00;14.50;;;16.20;99.90;;;;;;5087316;28;20206;-64
2023/08/05 05:02:54;;;;;;;14.97;14.47;;;16.30;99.90;;;;;;5087063;28;20666;-65
2023/08/05 05:05:21;;;;;;;14.00;13.50;;;16.20;99.90;;;;;;5092937;28;20208;-64
2023/08/05 05:07:47;;;;;;;14.77;14.27;;;16.20;99.90;;;;;;5089584;28;20240;-65
2023/08/05 05:10:16;;;;;;;14.43;13.93;;;16.20;99.90;;;;;;5091671;28;20571;-66
2023/08/05 05:12:43;;;;;;;14.57;14.07;;;16.20;99.90;;;;;;5092742;28;20198;-65
2023/08/05 05:15:10;;;;;;;15.33;14.83;;;16.20;99.90;;;;;;5090825;28;20227;-66
2023/08/05 05:17:37;;;;;;;14.37;13.87;;;16.20;99.90;;;;;;5088739;28;20599;-66
2023/08/05 05:20:05;;;;;;;15.47;14.87;;;16.20;99.90;;;;;;5087731;28;20579;-66
2023/08/05 05:22:32;;;;;;;14.83;14.33;;;16.20;99.90;;;;;;5089079;28;20202;-65
2023/08/05 05:24:59;;;;;;;16.60;16.00;;;16.30;99.90;;;;;;5089090;28;20202;-65
2023/08/05 05:27:27;;;;;;;17.20;16.60;;;16.30;99.90;;;;;;5091743;28;20665;-65
2023/08/05 05:29:54;;;;;;;16.37;15.80;;;16.40;99.90;;;;;;5090530;28;20206;-65
2023/08/05 05:32:21;;;;;;;15.70;15.20;;;16.40;99.90;;;;;;5092754;28;20210;-65
2023/08/05 05:34:48;;;;;;;16.73;16.13;;;16.50;99.90;;;;;;5092270;28;20198;-65
2023/08/05 05:37:14;;;;;;;16.30;15.60;;;16.50;99.90;;;;;;5101918;28;20221;-66
2023/08/05 05:39:41;;;;;;;16.10;15.57;;;16.60;99.90;;;;;;5098273;28;20823;-66
2023/08/05 05:42:08;;;;;;;16.60;16.00;;;16.60;99.90;;;;;;5092507;28;20293;-65
2023/08/05 05:44:38;;;;;;;15.73;15.23;;;16.70;99.90;;;;;;5091228;28;20206;-66
2023/08/05 05:47:05;;;;;;;15.97;15.37;;;16.70;99.90;;;;;;5092610;28;20219;-65
2023/08/05 05:49:32;;;;;;;16.00;15.40;;;16.70;99.90;;;;;;5091975;28;20563;-65
2023/08/05 05:51:58;;;;;;;17.03;16.43;;;16.70;99.90;;;;;;5092101;28;20587;-65
2023/08/05 05:54:25;;;;;;;16.27;15.67;;;16.80;99.90;;;;;;5092611;28;20207;-65
2023/08/05 05:56:52;;;;;;;14.30;13.80;;;16.80;99.90;;;;;;5090542;28;20222;-65
2023/08/05 05:59:19;;;;;;;17.40;16.80;;;16.80;99.90;;;;;;5091391;28;20212;-65
2023/08/05 06:01:47;;;;;;;15.30;14.80;;;16.80;99.90;;;;;;5092020;28;20284;-65
2023/08/05 06:04:14;;;;;;;16.35;15.73;;;17.00;99.90;;;;;;5092203;28;20632;-66
2023/08/05 06:06:41;;;;;;;16.70;16.13;;;16.80;99.90;;;;;;5092111;28;20201;-65
2023/08/05 06:09:07;;;;;;;15.67;15.17;;;16.90;99.90;;;;;;5091143;28;20215;-67
2023/08/05 06:11:34;;;;;;;14.23;13.73;;;17.00;99.90;;;;;;5092175;28;20229;-64
2023/08/05 06:14:01;;;;;;;14.45;13.95;;;17.10;99.90;;;;;;5091654;28;20203;-65
2023/08/05 06:16:30;;;;;;;14.67;14.17;;;17.10;99.90;;;;;;5093149;28;20742;-66
2023/08/05 06:18:58;;;;;;;13.20;12.70;;;17.20;99.90;;;;;;5093314;28;20317;-64
2023/08/05 06:21:25;;;;;;;13.23;12.77;;;17.20;99.90;;;;;;5092512;28;20207;-65
2023/08/05 06:23:52;;;;;;;14.07;13.57;;;17.30;99.90;;;;;;5093054;28;20691;-65
2023/08/05 06:26:18;;;;;;;12.73;12.33;;;17.40;99.90;;;;;;5092626;28;20199;-65
2023/08/05 06:28:45;;;;;;;13.27;12.80;;;17.60;99.90;;;;;;5094520;28;20229;-67
2023/08/05 06:31:12;;;;;;;12.60;12.07;;;17.90;99.90;;;;;;5094160;28;20203;-65
2023/08/05 06:33:39;;;;;;;12.00;11.60;;;18.10;99.90;;;;;;5091217;28;20198;-66
2023/08/05 06:36:07;;;;;;;12.17;11.77;;;18.20;99.90;;;;;;5088135;28;20645;-65
2023/08/05 06:38:34;;;;;;;12.63;12.23;;;18.30;99.90;;;;;;5083410;28;20219;-64
2023/08/05 06:41:01;;;;;;;14.03;13.53;;;18.30;99.90;;;;;;5090107;28;20203;-65
2023/08/05 06:43:28;;;;;;;12.63;12.23;;;18.40;99.90;;;;;;5091646;28;20343;-66
2023/08/05 06:45:55;;;;;;;14.43;13.93;;;18.40;99.90;;;;;;5091869;28;20969;-65
2023/08/05 06:48:23;;;;;;;15.80;15.20;;;18.40;99.90;;;;;;5091950;28;20214;-63
2023/08/05 06:50:49;;;;;;;17.97;17.27;;;18.40;99.90;;;;;;5092495;28;20202;-63
2023/08/05 06:53:18;;;;;;;18.53;17.83;;;18.50;99.90;;;;;;5093240;28;20205;-64
2023/08/05 06:55:45;;;;;;;18.17;17.57;;;18.60;99.90;;;;;;5101962;28;20258;-64
2023/08/05 06:58:12;;;;;;;19.73;19.03;;;18.70;99.90;;;;;;5094308;28;20300;-63
2023/08/05 07:00:39;;;;;;;19.40;18.70;;;18.60;99.90;;;;;;5080980;28;20282;-65
2023/08/05 07:03:05;;;;;;;19.17;18.47;;;18.50;99.90;;;;;;5081377;28;20222;-65
2023/08/05 07:05:32;;;;;;;20.37;19.67;;;18.50;99.90;;;;;;5081715;28;20199;-65
2023/08/05 07:07:59;;;;;;;22.77;21.97;;;18.60;99.90;;;;;;5079684;28;20617;-66
2023/08/05 07:10:27;;;;;;;23.17;22.37;;;18.70;99.90;;;;;;5082608;28;20208;-64
2023/08/05 07:12:54;;;;;;;21.83;21.03;;;18.80;99.90;;;;;;5086293;28;20210;-63
2023/08/05 07:15:21;;;;;;;23.17;22.37;;;18.80;99.90;;;;;;5085193;28;20349;-66
2023/08/05 07:17:48;;;;;;;21.83;21.03;;;18.90;99.90;;;;;;5081425;28;20234;-66
2023/08/05 07:20:15;;;;;;;23.03;22.23;;;19.00;99.90;;;;;;5081273;28;20656;-63
2023/08/05 07:22:42;;;;;;;22.93;22.13;;;19.00;99.90;;;;;;5086232;28;20202;-65
2023/08/05 07:25:09;;;;;;;23.00;22.20;;;19.00;99.90;;;;;;5084725;28;20211;-64
2023/08/05 07:27:37;;;;;;;24.30;23.50;;;18.90;99.90;;;;;;5087502;28;20225;-66
2023/08/05 07:30:04;;;;;;;25.57;24.67;;;18.90;99.90;;;;;;5080051;28;20210;-65
2023/08/05 07:32:31;;;;;;;22.10;21.33;;;18.80;99.90;;;;;;5086903;28;20212;-65
2023/08/05 07:34:59;;;;;;;25.97;25.07;;;18.80;99.90;;;;;;5080344;28;20309;-65
2023/08/05 07:37:26;;;;;;;22.73;21.93;;;18.90;99.90;;;;;;5088319;28;20222;-66
2023/08/05 07:39:53;;;;;;;22.93;22.13;;;19.00;99.90;;;;;;5083635;28;20207;-64
2023/08/05 07:42:22;;;;;;;23.27;22.48;;;19.20;99.90;;;;;;5089863;28;20201;-66
2023/08/05 07:44:52;;;;;;;24.60;23.73;;;19.30;99.90;;;;;;5087641;28;20229;-66
2023/08/05 07:47:19;;;;;;;28.30;27.30;;;19.30;99.90;;;;;;5075171;28;20215;-64
2023/08/05 07:49:48;;;;;;;25.93;25.03;;;19.40;99.90;;;;;;5083098;28;20299;-64
2023/08/05 07:52:15;;;;;;;25.30;24.40;;;19.20;99.90;;;;;;5082959;28;20195;-66
2023/08/05 07:54:42;;;;;;;23.20;22.40;;;19.10;99.90;;;;;;5087235;28;20198;-66
2023/08/05 07:57:09;;;;;;;28.13;27.13;;;19.10;99.90;;;;;;5082409;28;20235;-66
2023/08/05 07:59:36;;;;;;;24.80;23.90;;;19.10;99.90;;;;;;5088529;28;20221;-66
2023/08/05 08:02:07;;;;;;;24.48;23.60;;;19.40;99.90;;;;;;5088089;28;20211;-65
2023/08/05 08:04:35;;;;;;;23.87;23.07;;;19.90;99.90;;;;;;5094001;28;20210;-67
2023/08/05 08:07:04;;;;;;;24.77;23.87;;;20.30;99.90;;;;;;5091006;28;20305;-65
2023/08/05 08:09:31;;;;;;;37.40;36.00;;;20.40;99.90;;;;;;5082338;22;20227;-65
2023/08/05 08:11:58;;;;;;;28.50;27.50;;;20.40;99.90;;;;;;5068730;28;20672;-64
2023/08/05 08:14:24;;;;;;;25.92;25.02;;;20.00;99.90;;;;;;5069187;28;20203;-65
2023/08/05 08:16:51;;;;;;;24.87;23.97;;;19.90;99.90;;;;;;5069865;28;20223;-65
2023/08/05 08:19:21;;;;;;;25.88;24.98;;;19.80;99.90;;;;;;5058634;28;20315;-65
2023/08/05 08:21:47;;;;;;;28.23;27.23;;;19.70;99.90;;;;;;5050681;28;20273;-66
2023/08/05 08:24:14;;;;;;;25.70;24.80;;;19.90;99.90;;;;;;5049084;28;20226;-64
2023/08/05 08:26:41;;;;;;;26.53;25.63;;;20.00;99.90;;;;;;5048740;28;20214;-64
2023/08/05 08:29:08;;;;;;;25.40;24.50;;;20.20;99.90;;;;;;5051212;28;20868;-65
2023/08/05 08:31:35;;;;;;;26.33;25.42;;;20.00;99.90;;;;;;5049218;28;20204;-66
2023/08/05 08:34:02;;;;;;;27.87;26.87;;;20.30;99.90;;;;;;5050607;28;20208;-67
2023/08/05 08:36:30;;;;;;;28.97;27.97;;;20.60;99.90;;;;;;5049873;28;20220;-66
2023/08/05 08:38:57;;;;;;;27.83;26.83;;;20.80;99.90;;;;;;5046150;28;20310;-66
2023/08/05 08:41:25;;;;;;;31.03;29.93;;;20.90;99.90;;;;;;5050708;28;20203;-67
2023/08/05 08:43:54;;;;;;;28.08;27.08;;;21.00;99.90;;;;;;5052126;28;20299;-65
2023/08/05 08:46:22;;;;;;;26.20;25.30;;;21.10;99.90;;;;;;5063236;28;20200;-63
2023/08/05 08:48:50;;;;;;;32.27;31.10;;;21.00;99.90;;;;;;5052291;28;20231;-67
2023/08/05 08:51:20;;;;;;;26.15;25.20;;;20.60;99.90;;;;;;5050062;28;20207;-66
2023/08/05 08:53:49;;;;;;;24.05;23.23;;;20.60;99.90;;;;;;5050550;28;20287;-65
2023/08/05 08:56:16;;;;;;;18.87;18.17;;;21.00;99.90;;;;;;5050391;28;20214;-67
2023/08/05 08:58:43;;;;;;;16.77;16.20;;;21.20;99.90;;;;;;5050654;28;20228;-66
2023/08/05 09:01:13;;;;;;;26.58;25.63;;;21.50;99.90;;;;;;5049433;28;20740;-66
2023/08/05 09:03:43;;;;;;;34.80;33.55;;;21.40;99.90;;;;;;5052072;28;20318;-64
2023/08/05 09:06:10;;;;;;;29.75;28.75;;;21.00;99.90;;;;;;5053391;28;20222;-66
2023/08/05 09:08:36;;;;;;;29.63;28.63;;;20.80;99.90;;;;;;5051635;28;20323;-66
2023/08/05 09:11:05;;;;;;;28.73;27.73;;;20.60;99.90;;;;;;5050473;28;20295;-65
2023/08/05 09:13:31;;;;;;;28.95;27.95;;;20.40;99.90;;;;;;5049475;28;20299;-66
2023/08/05 09:15:58;;;;;;;27.30;26.37;;;20.50;99.90;;;;;;5049939;28;20204;-66
2023/08/05 09:18:25;;;;;;;27.25;26.33;;;20.50;99.90;;;;;;5049677;28;20228;-65
2023/08/05 09:20:52;;;;;;;31.05;29.95;;;20.80;99.90;;;;;;5048537;28;20214;-67
2023/08/05 09:23:19;;;;;;;28.13;27.13;;;20.80;99.90;;;;;;5049447;28;20207;-67
2023/08/05 09:25:49;;;;;;;24.27;23.45;;;21.00;99.90;;;;;;5049273;28;20203;-67
2023/08/05 09:28:30;;;;;;;30.52;29.42;;;21.30;99.90;;;;;;5049732;28;20255;-66
2023/08/05 09:31:15;;;;;;;25.92;25.02;;;21.50;99.90;;;;;;5049100;28;20211;-67
2023/08/05 09:33:42;;;;;;;19.85;19.17;;;21.70;99.90;;;;;;5048953;28;20227;-64
2023/08/05 09:36:10;;;;;;;12.60;12.20;;;21.90;99.90;;;;;;5049231;28;20208;-65
2023/08/05 09:38:38;;;;;;;23.25;22.45;;;22.10;99.90;;;;;;5049226;28;20354;-65
2023/08/05 09:41:06;;;;;;;29.55;28.50;;;22.50;99.90;;;;;;5049033;28;20204;-65
2023/08/05 09:43:39;;;;;;;21.10;20.38;;;22.40;99.90;;;;;;5049312;28;20254;-66
2023/08/05 09:46:11;;;;;;;29.53;28.50;;;22.10;99.90;;;;;;5049338;28;20208;-66
2023/08/05 09:48:42;;;;;;;25.13;24.27;;;21.90;99.90;;;;;;5049185;28;20227;-66
2023/08/05 09:51:14;;;;;;;14.15;13.65;;;22.20;99.90;;;;;;5048874;28;20254;-66
2023/08/05 09:53:42;;;;;;;19.10;18.42;;;22.40;99.90;;;;;;5049213;28;20562;-64
2023/08/05 09:56:10;;;;;;;28.25;27.27;;;22.30;99.90;;;;;;5049228;28;20210;-67
2023/08/05 09:58:38;;;;;;;25.65;24.75;;;22.30;99.90;;;;;;5049281;28;20286;-65
2023/08/05 10:01:07;;;;;;;24.20;23.38;;;22.20;99.90;;;;;;5049045;28;20290;-68
2023/08/05 10:03:37;;;;;;;12.25;11.85;;;22.20;99.90;;;;;;5055192;28;20230;-66
2023/08/05 10:06:07;;;;;;;13.85;13.35;;;22.60;99.90;;;;;;5051514;28;20199;-66
2023/08/05 10:08:36;;;;;;;16.98;16.40;;;22.90;99.90;;;;;;5048753;28;20224;-65
2023/08/05 10:11:04;;;;;;;15.07;14.57;;;23.10;99.90;;;;;;5047442;28;20219;-66
2023/08/05 10:13:36;;;;;;;12.10;11.70;;;23.40;99.90;;;;;;5053092;28;20212;-66
2023/08/05 10:16:07;;;;;;;12.53;12.13;;;23.60;99.90;;;;;;5053618;28;20214;-65
2023/08/05 10:18:35;;;;;;;11.93;11.52;;;23.80;99.90;;;;;;5053518;28;20234;-64
2023/08/05 10:21:04;;;;;;;13.32;12.88;;;23.80;99.90;;;;;;5053064;28;20204;-65
2023/08/05 10:23:34;;;;;;;13.13;12.68;;;24.00;99.90;;;;;;5053610;28;20293;-66
2023/08/05 10:26:02;;;;;;;11.80;11.40;;;24.00;99.90;;;;;;5053691;28;20207;-66
2023/08/05 10:28:44;;;;;;;17.90;17.30;;;24.00;99.90;;;;;;5053569;28;20307;-65
2023/08/05 10:31:28;;;;;;;11.57;11.18;;;23.50;99.90;;;;;;5053184;28;20689;-67
2023/08/05 10:34:17;;;;;;;11.55;11.15;;;23.20;99.90;;;;;;5053411;28;20207;-66
2023/08/05 10:36:46;;;;;;;14.63;14.13;;;23.20;99.90;;;;;;5053463;28;20584;-66
2023/08/05 10:39:41;;;;;;;12.95;12.45;;;22.80;99.90;;;;;;5055964;28;20224;-66
2023/08/05 10:42:36;;;;;;;11.57;11.18;;;22.50;99.90;;;;;;5063163;28;20274;-65
2023/08/05 10:45:07;;;;;;;12.07;11.68;;;22.30;99.90;;;;;;5028310;28;20290;-66
2023/08/05 10:47:35;;;;;;;12.07;11.68;;;22.30;99.90;;;;;;5055795;28;20212;-65
2023/08/05 10:50:02;;;;;;;11.93;11.53;;;22.40;99.90;;;;;;5053076;28;20303;-65
2023/08/05 10:52:30;;;;;;;11.88;11.48;;;22.70;99.90;;;;;;5053599;28;20211;-66
2023/08/05 10:54:58;;;;;;;10.68;10.27;;;23.20;99.90;;;;;;5053731;28;20215;-66
2023/08/05 10:57:46;;;;;;;10.35;10.05;;;23.60;99.90;;;;;;5052794;28;20234;-65
2023/08/05 11:00:20;;;;;;;10.75;10.35;;;23.80;99.90;;;;;;5051105;28;20211;-66
2023/08/05 11:02:49;;;;;;;9.75;9.45;;;23.90;99.90;;;;;;5053376;28;20200;-64
2023/08/05 11:05:17;;;;;;;10.27;9.98;;;23.50;99.90;;;;;;5052337;28;20239;-65
2023/08/05 11:07:44;;;;;;;10.45;10.15;;;23.80;99.90;;;;;;5052479;28;20203;-66
2023/08/05 11:10:12;;;;;;;11.32;10.93;;;23.90;99.90;;;;;;5051334;28;20297;-64
2023/08/05 11:12:40;;;;;;;10.32;10.02;;;23.80;99.90;;;;;;5053599;28;20505;-65
2023/08/05 11:15:08;;;;;;;9.98;9.68;;;23.50;99.90;;;;;;5058172;28;20227;-64
2023/08/05 11:17:50;;;;;;;10.25;9.95;;;23.30;99.90;;;;;;5054700;28;20228;-65
2023/08/05 11:20:18;;;;;;;11.82;11.40;;;23.40;99.90;;;;;;5057954;28;20698;-64
2023/08/05 11:22:47;;;;;;;9.45;9.15;;;23.70;99.90;;;;;;5060552;28;20219;-63
2023/08/05 11:25:19;;;;;;;9.75;9.45;;;23.90;99.90;;;;;;5067444;28;20245;-64
2023/08/05 11:27:52;;;;;;;9.38;9.07;;;23.60;99.90;;;;;;5051829;28;20748;-65
2023/08/05 11:30:20;;;;;;;9.20;8.90;;;23.90;99.90;;;;;;5048960;28;20199;-65
2023/08/05 11:32:51;;;;;;;9.30;9.00;;;24.20;99.90;;;;;;5051129;28;20235;-65
2023/08/05 11:35:19;;;;;;;9.88;9.57;;;24.60;99.90;;;;;;5051055;28;20208;-65
2023/08/05 11:37:46;;;;;;;11.70;11.30;;;24.80;99.90;;;;;;5051015;28;20576;-65
2023/08/05 11:40:13;;;;;;;10.20;9.90;;;24.90;99.90;;;;;;5050307;28;20210;-65
2023/08/05 11:42:40;;;;;;;9.80;9.50;;;24.80;99.90;;;;;;5052103;28;20204;-64
2023/08/05 11:45:10;;;;;;;10.43;10.02;;;24.70;99.90;;;;;;5057240;28;20498;-65
2023/08/05 11:47:38;;;;;;;10.02;9.73;;;24.70;99.90;;;;;;5053507;28;20442;-64
2023/08/05 11:50:05;;;;;;;11.30;10.90;;;24.60;99.90;;;;;;5051616;28;20204;-67
2023/08/05 11:52:34;;;;;;;10.00;9.70;;;24.20;99.90;;;;;;5053783;28;20310;-61
2023/08/05 11:55:01;;;;;;;9.63;9.32;;;23.80;99.90;;;;;;5056750;28;20200;-65
2023/08/05 11:57:28;;;;;;;10.30;10.00;;;23.90;99.90;;;;;;5051464;28;20259;-67
2023/08/05 11:59:56;;;;;;;10.20;9.80;;;24.30;99.90;;;;;;5049955;28;20580;-66
2023/08/05 12:02:25;;;;;;;9.60;9.30;;;24.50;99.90;;;;;;5057231;28;20214;-66
2023/08/05 12:04:56;;;;;;;10.02;9.73;;;24.80;99.90;;;;;;5051480;28;20223;-63
2023/08/05 12:07:23;;;;;;;11.52;11.13;;;24.90;99.90;;;;;;5051120;28;20203;-66
2023/08/05 12:10:08;;;;;;;10.73;10.32;;;25.00;99.90;;;;;;5049422;28;20227;-62
2023/08/05 12:12:35;;;;;;;10.50;10.20;;;25.30;99.90;;;;;;5049080;28;20227;-68
2023/08/05 12:15:13;;;;;;;10.70;10.30;;;25.50;99.90;;;;;;5051337;28;20855;-66
2023/08/05 12:17:40;;;;;;;10.90;10.50;;;25.50;99.90;;;;;;5054478;28;20648;-65
2023/08/05 12:20:11;;;;;;;11.38;10.98;;;25.60;99.90;;;;;;5052182;28;20214;-65
2023/08/05 12:22:38;;;;;;;10.18;9.77;;;25.70;99.90;;;;;;5051053;28;20208;-64
2023/08/05 12:25:07;;;;;;;10.45;10.15;;;25.70;99.90;;;;;;5050561;28;20200;-67
2023/08/05 12:27:33;;;;;;;10.40;10.10;;;25.70;99.90;;;;;;5052006;28;20200;-65
2023/08/05 12:30:01;;;;;;;10.52;10.15;;;25.70;99.90;;;;;;5052121;28;20208;-66
2023/08/05 12:32:27;;;;;;;9.90;9.60;;;25.70;99.90;;;;;;5052866;28;20254;-65